Time;durP1;ratioP1;P1;durP2;ratioP2;P2;SDS_P1;SDS_P2;PMS_P1;PMS_P2;Temp;Humidity;BMP_temperature;BMP_pressure;BME280_temperature;BME280_humidity;BME280_pressure;Samples;Min_cycle;Max_cycle;Signal;HPM_P1;HPM_P2
2021/10/04 00:01:03;;;;;;;1.20;1.00;;;15.30;98.00;;;;;;5051255;28;20461;-72
2021/10/04 00:03:31;;;;;;;1.20;1.00;;;15.30;98.00;;;;;;5051186;28;20848;-71
2021/10/04 00:05:58;;;;;;;1.30;1.10;;;15.20;98.00;;;;;;5050975;28;20489;-72
2021/10/04 00:08:28;;;;;;;1.30;1.10;;;15.10;98.00;;;;;;5051205;28;20539;-72
2021/10/04 00:10:55;;;;;;;1.20;1.00;;;15.10;98.00;;;;;;5055099;28;20479;-72
2021/10/04 00:13:22;;;;;;;1.20;1.10;;;15.10;98.00;;;;;;5055091;28;20995;-72
2021/10/04 00:15:49;;;;;;;1.20;1.00;;;15.10;98.00;;;;;;5054929;28;20523;-72
2021/10/04 00:18:16;;;;;;;1.20;0.90;;;15.10;98.00;;;;;;5054871;28;20534;-73
2021/10/04 00:20:44;;;;;;;1.20;1.10;;;15.20;98.00;;;;;;5037304;28;20546;-72
2021/10/04 00:23:11;;;;;;;1.40;1.20;;;15.20;98.00;;;;;;5054998;28;20519;-72
2021/10/04 00:25:40;;;;;;;1.20;1.00;;;15.10;98.00;;;;;;5054558;28;20995;-71
2021/10/04 00:28:07;;;;;;;1.20;1.00;;;15.10;98.00;;;;;;5054569;28;20550;-71
2021/10/04 00:30:35;;;;;;;1.20;1.10;;;15.10;98.00;;;;;;5054864;28;20520;-72
2021/10/04 00:33:02;;;;;;;1.20;1.07;;;15.20;98.00;;;;;;5054867;28;20991;-71
2021/10/04 00:35:29;;;;;;;1.47;1.30;;;15.40;98.00;;;;;;5054571;28;20597;-72
2021/10/04 00:37:58;;;;;;;1.20;1.00;;;15.30;98.00;;;;;;5054982;28;21110;-72
2021/10/04 00:40:29;;;;;;;1.60;1.30;;;15.20;98.00;;;;;;5054972;28;20925;-72
2021/10/04 00:42:59;;;;;;;1.20;1.00;;;15.20;98.00;;;;;;5054529;28;20457;-71
2021/10/04 00:45:26;;;;;;;1.20;1.00;;;15.30;98.00;;;;;;5054542;28;20489;-71
2021/10/04 00:47:54;;;;;;;1.20;1.00;;;15.40;98.00;;;;;;5054256;28;20958;-72
2021/10/04 00:50:23;;;;;;;1.20;1.10;;;15.30;98.00;;;;;;5053973;28;20600;-72
2021/10/04 00:52:51;;;;;;;1.20;1.03;;;15.30;98.00;;;;;;5054372;28;20449;-71
2021/10/04 00:55:19;;;;;;;1.20;1.00;;;15.30;98.00;;;;;;5054023;28;20500;-72
2021/10/04 00:57:47;;;;;;;1.20;1.00;;;15.40;98.00;;;;;;5054078;28;20955;-72
2021/10/04 01:00:18;;;;;;;1.20;1.00;;;15.50;98.00;;;;;;5053957;28;20523;-71
2021/10/04 01:02:46;;;;;;;1.37;1.30;;;15.60;98.00;;;;;;5054186;28;20583;-72
2021/10/04 01:05:14;;;;;;;1.20;1.00;;;15.60;98.00;;;;;;5053807;28;20515;-72
2021/10/04 01:07:42;;;;;;;1.30;1.30;;;15.60;98.00;;;;;;5054016;28;20506;-73
2021/10/04 01:10:11;;;;;;;1.20;1.20;;;15.70;98.00;;;;;;5053896;28;20519;-72
2021/10/04 01:12:39;;;;;;;1.67;1.20;;;15.60;98.00;;;;;;5053989;28;20848;-71
2021/10/04 01:15:07;;;;;;;1.20;1.00;;;15.60;98.00;;;;;;5053842;28;20493;-72
2021/10/04 01:17:35;;;;;;;1.20;1.10;;;15.60;98.00;;;;;;5053963;28;20460;-71
2021/10/04 01:20:10;;;;;;;1.20;1.10;;;15.60;98.00;;;;;;5053316;28;20489;-71
2021/10/04 01:22:37;;;;;;;1.20;1.10;;;15.80;98.00;;;;;;5053613;28;20458;-72
2021/10/04 01:25:05;;;;;;;1.40;1.10;;;15.70;98.00;;;;;;5053343;28;20464;-71
2021/10/04 01:27:32;;;;;;;1.20;1.10;;;15.50;98.00;;;;;;5053710;28;20481;-72
2021/10/04 01:29:59;;;;;;;1.20;1.20;;;15.50;98.00;;;;;;5053514;28;20570;-72
2021/10/04 01:32:27;;;;;;;1.20;1.00;;;15.60;98.00;;;;;;5053494;28;20512;-71
2021/10/04 01:34:55;;;;;;;1.20;1.00;;;15.70;98.00;;;;;;5053539;28;20458;-72
2021/10/04 01:37:25;;;;;;;1.20;1.00;;;15.70;98.00;;;;;;5053419;28;20555;-72
2021/10/04 01:39:53;;;;;;;1.40;1.10;;;15.80;98.00;;;;;;5053438;28;20793;-71
2021/10/04 01:42:21;;;;;;;1.20;1.00;;;15.80;98.00;;;;;;5053539;28;20457;-71
2021/10/04 01:44:50;;;;;;;1.50;1.30;;;15.80;98.00;;;;;;5053410;28;21090;-71
2021/10/04 01:47:17;;;;;;;1.20;1.10;;;15.80;98.00;;;;;;5053269;28;20515;-71
2021/10/04 01:49:44;;;;;;;1.20;1.10;;;15.70;98.00;;;;;;5053223;28;20570;-71
2021/10/04 01:52:12;;;;;;;1.20;1.00;;;15.80;98.00;;;;;;5053329;28;20456;-71
2021/10/04 01:54:41;;;;;;;1.20;1.00;;;15.70;98.00;;;;;;5053348;28;20519;-71
2021/10/04 01:57:09;;;;;;;1.20;1.10;;;15.40;98.00;;;;;;5053199;28;20523;-71
2021/10/04 01:59:36;;;;;;;1.80;1.30;;;15.30;98.00;;;;;;5035864;28;20499;-70
2021/10/04 02:02:06;;;;;;;1.20;1.10;;;15.30;98.00;;;;;;5053509;28;20465;-71
2021/10/04 02:04:33;;;;;;;1.40;1.00;;;15.40;98.00;;;;;;5053027;28;20465;-71
2021/10/04 02:07:01;;;;;;;1.20;1.20;;;15.40;98.00;;;;;;5053033;28;20496;-70
2021/10/04 02:09:29;;;;;;;1.90;1.20;;;15.50;98.00;;;;;;5052726;28;20460;-71
2021/10/04 02:11:57;;;;;;;1.20;1.10;;;15.50;98.00;;;;;;5052873;28;20492;-70
2021/10/04 02:14:24;;;;;;;1.20;1.10;;;15.50;98.00;;;;;;5052768;28;20450;-70
2021/10/04 02:16:51;;;;;;;1.20;1.10;;;15.40;98.00;;;;;;5035161;28;20508;-70
2021/10/04 02:19:18;;;;;;;1.30;1.10;;;15.40;98.00;;;;;;5052627;28;20943;-70
2021/10/04 02:21:45;;;;;;;1.20;1.10;;;15.40;98.00;;;;;;5052573;28;21048;-70
2021/10/04 02:24:13;;;;;;;1.20;1.00;;;15.40;98.00;;;;;;5052608;28;20517;-70
2021/10/04 02:26:41;;;;;;;1.30;1.20;;;15.20;98.00;;;;;;5052109;28;20959;-71
2021/10/04 02:29:10;;;;;;;1.20;1.00;;;15.10;98.00;;;;;;5052321;28;20495;-70
2021/10/04 02:31:37;;;;;;;1.20;1.10;;;15.20;98.00;;;;;;5052082;28;20542;-71
2021/10/04 02:34:06;;;;;;;1.30;1.20;;;14.90;98.00;;;;;;5051513;28;20460;-71
2021/10/04 02:36:33;;;;;;;1.20;1.10;;;15.00;98.00;;;;;;5052186;28;20486;-70
2021/10/04 02:39:00;;;;;;;1.20;1.07;;;15.10;98.00;;;;;;5034711;28;20525;-70
2021/10/04 02:41:27;;;;;;;1.20;1.00;;;15.10;98.00;;;;;;5052142;28;20460;-71
2021/10/04 02:43:54;;;;;;;1.20;1.10;;;15.10;98.00;;;;;;5052203;28;21101;-71
2021/10/04 02:46:23;;;;;;;1.20;1.00;;;15.00;98.00;;;;;;5034473;28;20496;-72
2021/10/04 02:48:50;;;;;;;1.50;1.10;;;14.80;98.00;;;;;;5052071;28;20488;-71
2021/10/04 02:51:17;;;;;;;1.20;1.10;;;14.50;98.00;;;;;;5034493;28;20492;-71
2021/10/04 02:53:44;;;;;;;1.73;1.33;;;14.50;98.00;;;;;;5052047;28;20462;-71
2021/10/04 02:56:11;;;;;;;1.20;1.10;;;14.50;98.00;;;;;;5051942;28;20874;-71
2021/10/04 02:58:38;;;;;;;1.20;1.07;;;14.40;98.00;;;;;;5034207;28;20954;-71
2021/10/04 03:01:11;;;;;;;1.20;1.10;;;14.40;98.00;;;;;;5051741;28;20996;-71
2021/10/04 03:03:39;;;;;;;1.20;1.00;;;14.50;98.00;;;;;;5051729;28;20650;-70
2021/10/04 03:06:06;;;;;;;1.33;1.20;;;14.50;98.00;;;;;;5051790;28;20491;-70
2021/10/04 03:08:33;;;;;;;1.20;1.00;;;14.40;98.00;;;;;;5052015;28;20491;-70
2021/10/04 03:11:00;;;;;;;1.20;1.00;;;14.50;98.00;;;;;;5051647;28;20758;-71
2021/10/04 03:13:27;;;;;;;1.33;1.10;;;14.60;98.00;;;;;;5051891;28;20462;-71
2021/10/04 03:15:55;;;;;;;1.40;1.20;;;14.70;98.00;;;;;;5051757;28;20473;-71
2021/10/04 03:18:22;;;;;;;1.30;1.10;;;14.60;98.00;;;;;;5051738;28;20515;-71
2021/10/04 03:20:50;;;;;;;1.27;1.10;;;14.40;98.00;;;;;;5051688;28;20485;-71
2021/10/04 03:23:17;;;;;;;1.80;1.00;;;14.50;98.00;;;;;;5051968;28;20546;-71
2021/10/04 03:25:44;;;;;;;1.20;1.00;;;14.40;98.00;;;;;;5051601;28;20472;-70
2021/10/04 03:28:13;;;;;;;1.20;1.10;;;14.40;98.00;;;;;;5051450;28;20786;-71
2021/10/04 03:30:40;;;;;;;1.37;1.10;;;14.50;98.00;;;;;;5051735;28;20484;-70
2021/10/04 03:33:07;;;;;;;1.20;1.00;;;14.50;98.00;;;;;;5051281;28;20457;-73
2021/10/04 03:35:34;;;;;;;1.20;1.00;;;14.50;98.00;;;;;;5051484;28;20488;-71
2021/10/04 03:38:02;;;;;;;1.30;1.10;;;14.70;98.00;;;;;;5051423;28;20460;-70
2021/10/04 03:40:30;;;;;;;1.20;1.00;;;14.80;98.00;;;;;;5051222;28;20505;-71
2021/10/04 03:42:58;;;;;;;1.20;1.00;;;14.90;98.00;;;;;;5051289;28;20828;-71
2021/10/04 03:45:25;;;;;;;1.40;1.10;;;14.90;98.00;;;;;;5054758;28;20543;-71
2021/10/04 03:47:53;;;;;;;1.40;1.10;;;14.90;98.00;;;;;;5055384;28;20505;-71
2021/10/04 03:50:20;;;;;;;1.20;1.10;;;14.80;98.00;;;;;;5055138;28;20479;-71
2021/10/04 03:52:48;;;;;;;2.40;1.70;;;14.80;98.00;;;;;;5055247;28;20503;-71
2021/10/04 03:55:17;;;;;;;1.20;1.00;;;14.70;98.00;;;;;;5055061;28;20460;-71
2021/10/04 03:57:46;;;;;;;1.30;1.10;;;14.60;98.00;;;;;;5055329;28;20526;-71
2021/10/04 04:00:15;;;;;;;1.20;1.00;;;14.50;98.00;;;;;;5055123;28;20464;-71
2021/10/04 04:02:42;;;;;;;1.23;1.10;;;14.50;98.00;;;;;;5055124;28;20496;-71
2021/10/04 04:05:09;;;;;;;1.20;1.00;;;14.40;98.00;;;;;;5055071;28;20510;-72
2021/10/04 04:07:37;;;;;;;1.20;1.10;;;14.30;98.00;;;;;;5055259;28;20460;-70
2021/10/04 04:10:06;;;;;;;1.20;1.10;;;14.20;98.00;;;;;;5055195;28;20454;-71
2021/10/04 04:12:35;;;;;;;1.23;1.13;;;14.20;98.00;;;;;;5055113;28;20467;-72
2021/10/04 04:15:02;;;;;;;1.20;1.00;;;14.20;98.00;;;;;;5054694;28;20505;-71
2021/10/04 04:17:33;;;;;;;2.20;1.10;;;14.40;98.00;;;;;;5054644;28;20818;-71
2021/10/04 04:20:00;;;;;;;1.40;1.33;;;14.40;98.00;;;;;;5054968;28;20544;-72
2021/10/04 04:22:27;;;;;;;1.30;1.10;;;14.20;98.00;;;;;;5054969;28;20947;-71
2021/10/04 04:24:55;;;;;;;1.37;1.10;;;14.10;98.00;;;;;;5054832;28;20516;-71
2021/10/04 04:27:23;;;;;;;1.20;1.00;;;14.10;98.00;;;;;;5054847;28;20455;-71
2021/10/04 04:29:53;;;;;;;1.30;1.10;;;14.10;98.00;;;;;;5054714;28;20498;-71
2021/10/04 04:32:20;;;;;;;1.20;1.10;;;14.10;98.00;;;;;;5054666;28;20540;-70
2021/10/04 04:34:47;;;;;;;1.20;1.00;;;14.10;98.00;;;;;;5054833;28;20459;-71
2021/10/04 04:37:14;;;;;;;1.20;1.00;;;14.20;98.00;;;;;;5036969;28;20460;-72
2021/10/04 04:39:42;;;;;;;1.20;1.00;;;14.20;98.00;;;;;;5054842;28;20458;-71
2021/10/04 04:42:09;;;;;;;1.20;0.93;;;14.20;98.00;;;;;;5054818;28;20462;-71
2021/10/04 04:44:37;;;;;;;1.40;1.40;;;14.30;98.00;;;;;;5036929;28;20450;-71
2021/10/04 04:47:05;;;;;;;1.30;1.10;;;14.40;98.00;;;;;;5054974;28;20462;-71
2021/10/04 04:49:32;;;;;;;1.40;1.20;;;14.50;98.00;;;;;;5054465;28;20503;-70
2021/10/04 04:52:00;;;;;;;1.20;1.00;;;14.70;98.00;;;;;;5054662;28;20487;-72
2021/10/04 04:54:28;;;;;;;1.20;1.00;;;14.70;98.00;;;;;;5036768;28;20456;-72
2021/10/04 04:56:55;;;;;;;1.20;1.00;;;14.60;98.00;;;;;;5052843;28;20527;-71
2021/10/04 04:59:22;;;;;;;1.20;1.10;;;14.50;98.00;;;;;;5054220;28;21069;-71
2021/10/04 05:01:49;;;;;;;1.20;1.10;;;14.40;98.00;;;;;;5054263;28;20871;-73
2021/10/04 05:04:18;;;;;;;1.50;1.10;;;14.40;98.00;;;;;;5053993;28;20886;-71
2021/10/04 05:06:45;;;;;;;1.20;1.00;;;14.40;98.00;;;;;;5053999;28;20467;-71
2021/10/04 05:09:14;;;;;;;1.20;1.00;;;14.40;98.00;;;;;;5053658;28;20517;-71
2021/10/04 05:11:41;;;;;;;1.20;1.00;;;14.40;98.00;;;;;;5053390;28;20518;-71
2021/10/04 05:14:08;;;;;;;1.20;1.00;;;14.30;98.00;;;;;;5053388;28;20456;-71
2021/10/04 05:16:35;;;;;;;1.20;1.00;;;14.30;98.00;;;;;;5053279;28;20968;-71
2021/10/04 05:19:02;;;;;;;1.20;1.00;;;14.30;98.00;;;;;;5053812;28;20474;-70
2021/10/04 05:21:31;;;;;;;1.57;1.40;;;14.20;98.00;;;;;;5053436;28;20556;-72
2021/10/04 05:23:58;;;;;;;1.30;1.10;;;14.10;98.00;;;;;;5053803;28;20535;-72
2021/10/04 05:26:25;;;;;;;1.20;1.00;;;14.00;98.00;;;;;;5053472;28;20991;-71
2021/10/04 05:28:52;;;;;;;1.20;1.07;;;13.90;98.00;;;;;;5053655;28;20459;-72
2021/10/04 05:31:19;;;;;;;1.30;1.20;;;13.70;98.00;;;;;;5035886;28;20556;-72
2021/10/04 05:33:46;;;;;;;1.40;1.20;;;13.80;98.00;;;;;;5053554;28;20890;-71
2021/10/04 05:36:13;;;;;;;1.40;1.10;;;13.80;98.00;;;;;;5053559;28;20509;-71
2021/10/04 05:38:41;;;;;;;1.20;1.00;;;13.90;98.00;;;;;;5053396;28;20495;-73
2021/10/04 05:41:09;;;;;;;1.20;1.00;;;13.80;98.00;;;;;;5053555;28;20503;-71
2021/10/04 05:43:36;;;;;;;1.20;1.07;;;13.80;98.00;;;;;;5053411;28;20463;-72
2021/10/04 05:46:04;;;;;;;1.20;1.00;;;13.70;98.00;;;;;;5053389;28;20459;-72
2021/10/04 05:48:31;;;;;;;1.33;1.10;;;13.80;98.00;;;;;;5053292;28;20451;-71
2021/10/04 05:50:59;;;;;;;1.20;1.00;;;13.80;98.00;;;;;;5053266;28;20485;-73
2021/10/04 05:53:26;;;;;;;1.20;1.10;;;13.90;98.00;;;;;;5053316;28;20964;-70
2021/10/04 05:55:54;;;;;;;1.20;1.10;;;13.90;98.00;;;;;;5053165;28;20515;-71
2021/10/04 05:58:21;;;;;;;1.20;1.00;;;14.00;98.00;;;;;;5053305;28;20467;-71
2021/10/04 06:00:48;;;;;;;1.20;1.00;;;14.00;98.00;;;;;;5053161;28;20944;-71
2021/10/04 06:03:15;;;;;;;1.30;1.10;;;14.10;98.00;;;;;;5035497;28;20493;-70
2021/10/04 06:05:44;;;;;;;1.20;1.00;;;14.20;98.00;;;;;;5053350;28;20459;-70
2021/10/04 06:08:11;;;;;;;1.20;1.10;;;14.30;98.00;;;;;;5052984;28;20513;-72
2021/10/04 06:10:38;;;;;;;1.20;1.10;;;14.30;98.00;;;;;;5053007;28;20498;-71
2021/10/04 06:13:07;;;;;;;1.30;1.10;;;14.20;98.00;;;;;;5052866;28;21023;-73
2021/10/04 06:15:34;;;;;;;1.20;1.10;;;14.10;98.00;;;;;;5052726;28;20982;-71
2021/10/04 06:18:01;;;;;;;1.30;1.10;;;14.00;98.00;;;;;;5035009;28;20987;-72
2021/10/04 06:20:28;;;;;;;1.20;1.00;;;13.80;98.00;;;;;;5035098;28;20946;-70
2021/10/04 06:22:55;;;;;;;1.20;0.90;;;13.70;98.00;;;;;;5035040;28;20814;-72
2021/10/04 06:25:23;;;;;;;1.30;1.00;;;13.80;98.00;;;;;;5052373;28;20484;-71
2021/10/04 06:27:54;;;;;;;1.30;1.10;;;13.80;98.00;;;;;;5052420;28;20496;-71
2021/10/04 06:30:23;;;;;;;1.30;1.10;;;13.90;98.00;;;;;;5052605;28;20547;-72
2021/10/04 06:32:51;;;;;;;1.20;1.17;;;14.10;98.00;;;;;;5052337;28;20582;-71
2021/10/04 06:35:18;;;;;;;1.20;1.13;;;14.10;98.00;;;;;;5052514;28;20455;-71
2021/10/04 06:37:46;;;;;;;1.20;1.13;;;14.20;98.00;;;;;;5052281;28;20542;-72
2021/10/04 06:40:16;;;;;;;1.20;1.10;;;14.20;98.00;;;;;;5052476;28;20464;-73
2021/10/04 06:42:48;;;;;;;1.40;1.20;;;14.10;98.00;;;;;;5052189;28;20550;-71
2021/10/04 06:45:16;;;;;;;1.20;1.10;;;14.10;98.00;;;;;;5052182;28;20946;-72
2021/10/04 06:47:46;;;;;;;1.20;1.00;;;14.00;98.00;;;;;;5052282;28;21018;-72
2021/10/04 06:50:13;;;;;;;1.20;1.03;;;14.00;98.00;;;;;;5034383;28;20464;-72
2021/10/04 06:52:41;;;;;;;1.20;1.10;;;14.00;98.00;;;;;;5052030;28;20483;-72
2021/10/04 06:55:10;;;;;;;1.20;1.10;;;14.00;98.00;;;;;;5052154;28;20478;-72
2021/10/04 06:57:38;;;;;;;1.77;1.77;;;14.00;98.00;;;;;;5051958;28;20927;-72
2021/10/04 07:00:07;;;;;;;1.20;0.90;;;14.10;98.00;;;;;;5052091;28;20560;-72
2021/10/04 07:02:34;;;;;;;3.00;1.10;;;14.10;98.00;;;;;;5051886;28;20448;-72
2021/10/04 07:05:03;;;;;;;1.30;1.20;;;14.10;98.00;;;;;;5049803;28;20482;-73
2021/10/04 07:07:30;;;;;;;1.20;1.10;;;14.10;98.00;;;;;;5051373;28;20517;-71
2021/10/04 07:09:57;;;;;;;1.20;1.00;;;14.10;98.00;;;;;;5054358;28;20448;-73
2021/10/04 07:12:24;;;;;;;1.30;1.00;;;14.10;98.00;;;;;;5063460;28;20544;-72
2021/10/04 07:14:52;;;;;;;1.20;1.10;;;14.10;98.00;;;;;;5059605;28;20918;-72
2021/10/04 07:17:23;;;;;;;1.20;1.10;;;14.10;98.00;;;;;;5044957;28;20453;-73
2021/10/04 07:19:50;;;;;;;1.20;1.10;;;14.10;98.00;;;;;;5054292;28;20502;-72
2021/10/04 07:22:19;;;;;;;1.20;1.00;;;14.20;98.00;;;;;;5063250;28;20493;-73
2021/10/04 07:24:46;;;;;;;1.33;1.17;;;14.20;98.00;;;;;;5057721;28;20469;-72
2021/10/04 07:27:14;;;;;;;1.20;1.00;;;14.30;98.00;;;;;;5067434;28;20531;-70
2021/10/04 07:29:42;;;;;;;1.40;1.20;;;14.20;98.00;;;;;;5067184;28;20545;-72
2021/10/04 07:32:10;;;;;;;1.40;1.20;;;14.20;98.00;;;;;;5049239;28;20567;-73
2021/10/04 07:34:37;;;;;;;1.20;1.00;;;14.00;98.00;;;;;;5055860;28;20836;-72
2021/10/04 07:37:04;;;;;;;1.20;1.00;;;14.00;98.00;;;;;;5061321;28;20510;-71
2021/10/04 07:39:33;;;;;;;1.20;1.03;;;14.10;98.00;;;;;;5057904;28;20480;-74
2021/10/04 07:42:01;;;;;;;1.60;1.37;;;14.10;98.00;;;;;;5058004;28;20458;-70
2021/10/04 07:44:28;;;;;;;1.30;1.20;;;14.20;98.00;;;;;;5054469;28;20458;-71
2021/10/04 07:46:57;;;;;;;1.20;1.10;;;14.30;98.00;;;;;;5061131;28;20956;-73
2021/10/04 07:49:25;;;;;;;1.20;1.00;;;14.70;98.00;;;;;;5054971;28;20911;-72
2021/10/04 07:51:52;;;;;;;1.20;1.10;;;15.00;98.00;;;;;;5053893;28;20526;-71
2021/10/04 07:54:19;;;;;;;1.50;1.10;;;15.10;98.00;;;;;;5058802;28;20496;-73
2021/10/04 07:56:48;;;;;;;1.20;1.20;;;15.00;98.00;;;;;;5055160;28;20495;-73
2021/10/04 07:59:23;;;;;;;1.93;1.30;;;15.00;98.00;;;;;;5062174;28;20520;-71
2021/10/04 08:01:50;;;;;;;1.60;1.30;;;14.90;98.00;;;;;;5065793;28;20958;-70
2021/10/04 08:04:18;;;;;;;1.30;1.10;;;14.60;98.00;;;;;;5056656;28;20497;-73
2021/10/04 08:06:45;;;;;;;1.93;1.63;;;14.50;98.00;;;;;;5049317;28;20566;-72
2021/10/04 08:09:12;;;;;;;1.20;1.03;;;14.40;98.00;;;;;;5050553;28;20514;-72
2021/10/04 08:11:39;;;;;;;1.20;1.10;;;14.50;98.00;;;;;;5053543;28;20493;-71
2021/10/04 08:14:08;;;;;;;1.30;1.07;;;14.60;98.00;;;;;;5058517;28;20490;-73
2021/10/04 08:16:35;;;;;;;1.20;1.20;;;14.90;98.00;;;;;;5064052;28;20504;-72
2021/10/04 08:19:03;;;;;;;1.20;1.07;;;15.10;98.00;;;;;;5035225;28;21199;-72
2021/10/04 08:21:31;;;;;;;1.30;1.10;;;15.10;98.00;;;;;;5058476;28;20456;-73
2021/10/04 08:23:59;;;;;;;1.20;1.00;;;15.10;98.00;;;;;;5054614;28;20467;-70
2021/10/04 08:26:27;;;;;;;1.77;1.20;;;15.10;98.00;;;;;;5060612;28;20463;-70
2021/10/04 08:28:54;;;;;;;1.20;1.00;;;15.00;98.00;;;;;;5045026;28;20563;-71
2021/10/04 08:31:29;;;;;;;1.20;1.00;;;14.80;98.00;;;;;;5062844;28;20490;-69
2021/10/04 08:33:59;;;;;;;2.30;2.10;;;14.70;98.00;;;;;;5044361;28;20451;-74
2021/10/04 08:36:26;;;;;;;1.20;1.00;;;14.70;98.00;;;;;;5036365;28;20477;-73
2021/10/04 08:38:53;;;;;;;1.20;1.10;;;14.70;98.00;;;;;;5056502;28;20459;-73
2021/10/04 08:41:21;;;;;;;1.20;0.90;;;14.50;98.00;;;;;;5070471;28;20476;-73
2021/10/04 08:43:50;;;;;;;1.20;1.10;;;14.20;98.00;;;;;;5057437;28;20850;-73
2021/10/04 08:46:24;;;;;;;1.20;1.20;;;14.00;98.00;;;;;;5053378;28;20551;-72
2021/10/04 08:48:52;;;;;;;1.20;1.00;;;13.90;98.00;;;;;;5053583;28;20509;-72
2021/10/04 08:51:19;;;;;;;1.20;1.00;;;14.00;98.00;;;;;;5051652;28;20482;-72
2021/10/04 08:53:46;;;;;;;1.20;1.00;;;13.90;98.00;;;;;;5066027;28;20531;-73
2021/10/04 08:56:14;;;;;;;1.90;1.00;;;13.90;98.00;;;;;;5065939;28;20450;-71
2021/10/04 08:58:46;;;;;;;1.20;1.10;;;13.90;98.00;;;;;;5044659;28;20462;-73
2021/10/04 09:01:13;;;;;;;1.20;1.00;;;13.90;98.00;;;;;;5052635;28;20487;-73
2021/10/04 09:04:01;;;;;;;1.20;1.10;;;13.80;98.00;;;;;;5064868;28;20493;-73
2021/10/04 09:06:29;;;;;;;1.20;1.00;;;14.00;98.00;;;;;;5060054;28;20470;-73
2021/10/04 09:08:58;;;;;;;1.20;1.00;;;14.30;98.00;;;;;;5069117;28;20517;-73
2021/10/04 09:11:34;;;;;;;1.20;1.10;;;14.20;98.00;;;;;;5069120;28;20485;-73
2021/10/04 09:14:04;;;;;;;1.20;1.00;;;14.10;98.00;;;;;;5069304;28;20506;-75
2021/10/04 09:17:06;;;;;;;1.20;1.00;;;14.30;98.00;;;;;;5060890;28;20492;-70
2021/10/04 09:19:37;;;;;;;1.20;1.07;;;14.20;98.00;;;;;;5038076;28;20461;-70
2021/10/04 09:22:14;;;;;;;1.20;1.00;;;14.20;98.00;;;;;;5053681;28;20485;-72
2021/10/04 09:24:43;;;;;;;1.20;1.03;;;14.30;98.00;;;;;;5053594;28;20526;-72
2021/10/04 09:27:31;;;;;;;1.20;1.00;;;14.30;98.00;;;;;;5053654;28;20857;-72
2021/10/04 09:29:59;;;;;;;1.20;1.00;;;14.20;98.00;;;;;;5053795;28;20451;-72
2021/10/04 09:32:29;;;;;;;1.20;1.07;;;14.20;98.00;;;;;;5053471;28;20545;-71
2021/10/04 09:35:28;;;;;;;1.20;1.00;;;14.10;98.00;;;;;;5053526;28;20458;-71
2021/10/04 09:38:16;;;;;;;1.30;1.23;;;13.90;98.00;;;;;;4953056;29;20510;-71
2021/10/04 09:40:45;;;;;;;1.20;1.00;;;14.10;98.00;;;;;;4952927;29;20480;-73
2021/10/04 09:43:24;;;;;;;1.20;1.00;;;14.10;98.00;;;;;;4952373;28;20560;-73
2021/10/04 09:46:00;;;;;;;1.40;1.10;;;14.20;98.00;;;;;;4990518;28;20506;-70
2021/10/04 09:48:27;;;;;;;1.20;1.07;;;14.10;98.00;;;;;;5053430;28;20880;-71
2021/10/04 09:50:56;;;;;;;1.20;1.20;;;14.20;98.00;;;;;;5053100;28;20488;-71
2021/10/04 09:53:24;;;;;;;1.20;1.00;;;14.20;98.00;;;;;;5053267;28;20519;-71
2021/10/04 09:55:51;;;;;;;1.30;1.10;;;14.10;98.00;;;;;;5053270;28;21011;-72
2021/10/04 09:58:19;;;;;;;1.20;0.90;;;14.10;98.00;;;;;;5053234;28;20493;-71
2021/10/04 10:00:50;;;;;;;1.30;1.10;;;14.30;98.00;;;;;;5053235;28;20878;-71
2021/10/04 10:03:19;;;;;;;1.20;1.00;;;14.40;98.00;;;;;;5053405;28;21006;-71
2021/10/04 10:05:50;;;;;;;1.20;1.00;;;14.40;98.00;;;;;;5053258;28;20463;-71
2021/10/04 10:08:20;;;;;;;1.20;1.00;;;14.40;98.00;;;;;;5053269;28;20543;-72
2021/10/04 10:10:47;;;;;;;1.30;1.00;;;14.30;98.00;;;;;;5053318;28;21089;-71
2021/10/04 10:13:16;;;;;;;1.30;1.10;;;14.30;98.00;;;;;;5052737;28;20483;-71
2021/10/04 10:15:47;;;;;;;1.20;1.00;;;14.30;98.00;;;;;;5052892;28;20469;-72
2021/10/04 10:18:20;;;;;;;1.17;1.00;;;14.50;98.00;;;;;;5052738;28;20988;-71
2021/10/04 10:20:57;;;;;;;1.20;1.00;;;14.70;98.00;;;;;;5052517;28;20459;-72
2021/10/04 10:23:45;;;;;;;1.20;1.00;;;14.70;98.00;;;;;;5052548;28;20448;-71
2021/10/04 10:26:33;;;;;;;1.20;1.00;;;14.80;98.00;;;;;;5052577;28;20464;-71
2021/10/04 10:29:22;;;;;;;1.20;1.00;;;15.00;98.00;;;;;;5052543;28;20560;-72
2021/10/04 10:32:16;;;;;;;1.30;1.10;;;14.90;98.00;;;;;;5052479;28;20465;-71
2021/10/04 10:34:50;;;;;;;1.20;1.00;;;15.10;98.00;;;;;;5052256;28;20947;-72
2021/10/04 10:37:18;;;;;;;1.20;1.00;;;15.20;98.00;;;;;;5052235;28;20522;-72
2021/10/04 10:39:51;;;;;;;1.20;1.00;;;15.30;98.00;;;;;;5052325;28;20459;-73
2021/10/04 10:42:20;;;;;;;1.60;1.20;;;15.40;98.00;;;;;;5052390;28;20461;-72
2021/10/04 10:45:16;;;;;;;1.20;1.00;;;15.40;98.00;;;;;;5052301;28;20459;-72
2021/10/04 10:47:58;;;;;;;1.20;1.00;;;15.40;98.00;;;;;;5052123;28;20473;-72
2021/10/04 10:50:32;;;;;;;1.20;1.00;;;15.50;98.00;;;;;;5052076;28;20601;-72
2021/10/04 10:53:12;;;;;;;1.20;1.07;;;15.60;98.00;;;;;;5051504;28;21069;-71
2021/10/04 10:55:42;;;;;;;1.30;1.20;;;15.70;98.00;;;;;;5051878;28;20538;-72
2021/10/04 10:58:12;;;;;;;1.20;1.20;;;15.60;98.00;;;;;;5051973;28;20493;-72
2021/10/04 11:00:42;;;;;;;1.20;1.07;;;15.40;98.00;;;;;;5052061;28;20604;-72
2021/10/04 11:03:15;;;;;;;1.20;1.10;;;15.30;98.00;;;;;;5034070;28;20495;-72
2021/10/04 11:06:00;;;;;;;1.20;1.10;;;15.30;98.00;;;;;;5052110;28;21196;-72
2021/10/04 11:08:57;;;;;;;1.20;1.10;;;15.30;98.00;;;;;;5034188;28;20543;-73
2021/10/04 11:11:28;;;;;;;1.20;1.00;;;15.30;98.00;;;;;;5051932;28;20588;-71
2021/10/04 11:14:09;;;;;;;1.20;1.10;;;15.40;98.00;;;;;;5051461;28;20484;-72
2021/10/04 11:16:45;;;;;;;1.20;1.10;;;15.40;98.00;;;;;;5051931;28;20458;-71
2021/10/04 11:19:25;;;;;;;1.20;1.00;;;15.40;98.00;;;;;;5051891;28;20458;-72
2021/10/04 11:21:52;;;;;;;1.20;1.10;;;15.30;98.00;;;;;;5051333;28;21011;-70
2021/10/04 11:24:22;;;;;;;1.50;1.20;;;15.40;98.00;;;;;;5051439;28;20466;-72
2021/10/04 11:26:51;;;;;;;1.30;1.20;;;15.40;98.00;;;;;;5051249;28;20519;-71
2021/10/04 11:29:21;;;;;;;1.20;1.00;;;15.50;98.00;;;;;;5051670;28;20496;-71
2021/10/04 11:31:49;;;;;;;1.20;1.20;;;15.40;98.00;;;;;;5051899;28;20447;-71
2021/10/04 11:34:19;;;;;;;1.20;1.10;;;15.40;98.00;;;;;;5051772;28;20538;-70
2021/10/04 11:36:50;;;;;;;1.20;1.10;;;15.50;98.00;;;;;;5051599;28;20468;-71
2021/10/04 11:39:20;;;;;;;1.50;1.10;;;15.30;98.00;;;;;;5051704;28;20629;-72
2021/10/04 11:41:51;;;;;;;1.37;1.10;;;15.20;98.00;;;;;;5051206;28;20523;-72
2021/10/04 11:44:20;;;;;;;1.20;1.10;;;15.30;98.00;;;;;;5051629;28;20448;-72
2021/10/04 11:46:50;;;;;;;1.20;1.10;;;15.40;98.00;;;;;;5051531;28;20461;-72
2021/10/04 11:49:29;;;;;;;1.20;1.00;;;15.50;98.00;;;;;;5051169;28;20460;-72
2021/10/04 11:51:57;;;;;;;1.20;1.10;;;15.50;98.00;;;;;;5051164;28;20486;-71
2021/10/04 11:54:41;;;;;;;1.20;1.00;;;15.70;98.00;;;;;;5051125;28;20515;-70
2021/10/04 11:57:12;;;;;;;3.80;1.53;;;15.90;98.00;;;;;;5051126;28;20840;-71
2021/10/04 11:59:51;;;;;;;1.20;1.10;;;16.00;98.00;;;;;;5051480;28;20457;-71
2021/10/04 12:02:22;;;;;;;1.20;1.10;;;15.90;98.00;;;;;;5033604;28;20576;-72
2021/10/04 12:04:50;;;;;;;1.20;1.00;;;15.90;98.00;;;;;;5051902;28;20862;-71
2021/10/04 12:07:17;;;;;;;1.20;1.17;;;16.00;98.00;;;;;;5055202;28;20458;-72
2021/10/04 12:09:44;;;;;;;1.20;1.10;;;16.20;98.00;;;;;;5055164;28;20990;-71
2021/10/04 12:12:13;;;;;;;1.20;1.00;;;16.00;98.00;;;;;;5055089;28;20461;-71
2021/10/04 12:14:45;;;;;;;1.20;1.10;;;16.00;98.00;;;;;;5055488;28;20518;-69
2021/10/04 12:17:12;;;;;;;1.20;1.10;;;15.90;98.00;;;;;;5055133;28;20463;-68
2021/10/04 12:19:39;;;;;;;1.20;1.10;;;15.80;98.00;;;;;;5055125;28;20518;-73
2021/10/04 12:22:06;;;;;;;1.40;1.30;;;15.80;98.00;;;;;;5055090;28;20496;-74
2021/10/04 12:24:42;;;;;;;1.20;1.10;;;15.90;98.00;;;;;;5054467;28;20469;-73
2021/10/04 12:27:15;;;;;;;1.20;1.10;;;15.90;98.00;;;;;;5054540;28;20461;-73
2021/10/04 12:29:44;;;;;;;1.20;1.10;;;15.90;98.00;;;;;;5054681;28;20810;-71
2021/10/04 12:32:23;;;;;;;1.30;1.13;;;15.80;98.00;;;;;;5054696;28;20496;-72
2021/10/04 12:35:08;;;;;;;1.60;1.30;;;15.80;98.00;;;;;;5054582;28;21123;-70
2021/10/04 12:37:40;;;;;;;1.20;1.10;;;15.80;98.00;;;;;;5054864;28;20547;-70
2021/10/04 12:40:40;;;;;;;1.20;1.10;;;15.80;98.00;;;;;;5053366;28;20514;-74
2021/10/04 12:43:11;;;;;;;1.20;1.00;;;15.80;98.00;;;;;;5061300;28;20460;-72
2021/10/04 12:45:41;;;;;;;1.20;1.00;;;15.90;98.00;;;;;;5066617;28;20817;-72
2021/10/04 12:48:15;;;;;;;1.20;1.00;;;15.90;98.00;;;;;;5061008;28;20463;-71
2021/10/04 12:50:44;;;;;;;1.30;1.10;;;15.90;98.00;;;;;;5074678;28;20461;-71
2021/10/04 12:53:21;;;;;;;1.20;1.00;;;16.00;98.00;;;;;;5056500;28;20879;-71
2021/10/04 12:55:59;;;;;;;1.30;1.20;;;16.10;98.00;;;;;;5074214;28;20458;-71
2021/10/04 12:58:29;;;;;;;1.20;1.20;;;16.10;98.00;;;;;;5056227;28;20879;-70
2021/10/04 13:01:11;;;;;;;1.40;1.10;;;16.30;98.00;;;;;;5073805;28;20489;-70